Terminal Aerodrome Forecast
Issued by NWS

Home | Current Version | Previous Version | Text Only | Print | Product List | Glossary On
Versions: 1 2 3 4 5 6 7 8 9 10 11 12
000
FTUS45 KABQ 301142
TAFAEG
TAF
KAEG 301142Z 3012/3112 VRB05KT P6SM FEW050
     FM301800 13007KT P6SM SCT070
     FM302100 12010KT P6SM VCTS SCT070CB BKN120
     FM310000 12012KT P6SM VCSH SCT070 BKN120
     FM310500 VRB05KT P6SM FEW070 BKN120=

USA.gov is the U.S. government's official web portal to all federal, state and local government web resources and services.